Time;durP1;ratioP1;P1;durP2;ratioP2;P2;SDS_P1;SDS_P2;PMS_P1;PMS_P2;Temp;Humidity;BMP_temperature;BMP_pressure;BME280_temperature;BME280_humidity;BME280_pressure;Samples;Min_cycle;Max_cycle;Signal;HPM_P1;HPM_P2
2022/06/04 00:00:30;;;;;;;22.60;5.23;;;12.70;99.90;;;;;;5072178;28;20513;-51
2022/06/04 00:02:56;;;;;;;9.20;5.00;;;12.70;99.90;;;;;;5072536;28;20122;-51
2022/06/04 00:05:24;;;;;;;10.82;4.30;;;12.60;99.90;;;;;;5072395;28;20053;-52
2022/06/04 00:07:50;;;;;;;11.90;4.97;;;12.50;99.90;;;;;;5058700;28;20041;-52
2022/06/04 00:15:59;;;;;;;12.40;6.50;;;12.70;99.90;;;;;;5072182;28;20817;-52
2022/06/04 00:18:25;;;;;;;15.25;6.55;;;12.70;99.90;;;;;;5072398;28;20040;-52
2022/06/04 00:20:52;;;;;;;10.57;5.95;;;12.60;99.90;;;;;;5071967;28;20057;-52
2022/06/04 00:23:18;;;;;;;11.20;6.97;;;12.60;99.90;;;;;;5072016;28;20090;-52
2022/06/04 00:25:49;;;;;;;14.55;6.85;;;12.60;99.90;;;;;;5071948;28;20406;-51
2022/06/04 00:28:16;;;;;;;17.15;7.18;;;12.60;99.90;;;;;;5072227;28;20506;-52
2022/06/04 00:30:42;;;;;;;10.90;7.05;;;12.60;99.90;;;;;;5072336;28;20049;-51
2022/06/04 00:33:08;;;;;;;13.48;7.75;;;12.60;99.90;;;;;;5071938;28;20758;-52
2022/06/04 00:35:35;;;;;;;16.00;7.10;;;12.60;99.90;;;;;;5072181;28;20041;-51
2022/06/04 00:38:02;;;;;;;12.98;6.60;;;12.60;99.90;;;;;;5071605;28;20080;-52
2022/06/04 00:40:41;;;;;;;16.92;7.10;;;12.50;99.90;;;;;;5054217;28;20143;-51
2022/06/04 00:43:07;;;;;;;10.02;6.55;;;12.50;99.90;;;;;;5072081;28;20051;-52
2022/06/04 00:45:35;;;;;;;13.27;6.40;;;12.50;99.90;;;;;;5072574;28;20048;-52
2022/06/04 00:48:05;;;;;;;15.10;7.13;;;12.50;99.90;;;;;;5071766;28;20052;-51
2022/06/04 00:50:33;;;;;;;14.43;7.03;;;12.40;99.90;;;;;;5071801;28;20045;-49
2022/06/04 00:53:02;;;;;;;13.13;6.53;;;12.40;99.90;;;;;;5071813;28;20040;-50
2022/06/04 00:55:44;;;;;;;9.73;6.35;;;12.40;99.90;;;;;;5057838;28;20511;-51
2022/06/04 00:58:27;;;;;;;15.25;6.43;;;12.40;99.90;;;;;;5071700;28;20094;-52
2022/06/04 01:01:00;;;;;;;12.15;6.40;;;12.40;99.90;;;;;;5071402;28;20128;-51
2022/06/04 01:03:52;;;;;;;10.43;6.07;;;12.30;99.90;;;;;;5071637;28;20056;-51
2022/06/04 01:06:26;;;;;;;19.48;6.07;;;12.30;99.90;;;;;;5041303;28;20402;-52
2022/06/04 01:09:06;;;;;;;11.88;5.80;;;12.30;99.90;;;;;;5071502;28;20044;-48
2022/06/04 01:12:11;;;;;;;13.75;6.40;;;12.40;99.90;;;;;;5071282;28;20127;-52
2022/06/04 01:14:55;;;;;;;13.77;6.65;;;12.30;99.90;;;;;;5071458;28;20183;-50
2022/06/04 01:17:33;;;;;;;15.05;6.88;;;12.20;99.90;;;;;;5071275;28;20403;-52
2022/06/04 01:20:10;;;;;;;13.55;6.38;;;12.20;99.90;;;;;;5071821;28;20048;-49
2022/06/04 01:22:48;;;;;;;11.95;5.57;;;12.10;99.90;;;;;;5071672;28;20094;-51
2022/06/04 01:26:00;;;;;;;12.15;5.07;;;12.10;99.90;;;;;;5071320;28;20486;-52
2022/06/04 01:28:27;;;;;;;16.40;5.90;;;12.20;99.90;;;;;;5058652;28;20051;-52
2022/06/04 01:31:00;;;;;;;15.68;6.50;;;12.10;99.90;;;;;;5071713;28;20887;-51
2022/06/04 01:33:45;;;;;;;12.27;5.68;;;12.10;99.90;;;;;;5058244;28;20045;-52
2022/06/04 01:36:22;;;;;;;12.93;5.53;;;12.00;99.90;;;;;;5074860;28;20043;-51
2022/06/04 01:39:02;;;;;;;15.18;5.85;;;12.10;99.90;;;;;;5071007;28;20072;-51
2022/06/04 01:41:34;;;;;;;15.20;5.70;;;12.10;99.90;;;;;;5070499;28;20036;-52
2022/06/04 01:44:09;;;;;;;13.10;5.45;;;12.00;99.90;;;;;;5071116;28;20052;-51
2022/06/04 01:46:48;;;;;;;14.13;6.22;;;12.00;99.90;;;;;;5070901;28;20487;-50
2022/06/04 01:49:33;;;;;;;8.63;5.28;;;12.00;99.90;;;;;;5071203;28;20055;-51
2022/06/04 01:52:06;;;;;;;9.00;4.72;;;12.00;99.90;;;;;;5074887;28;20044;-51
2022/06/04 01:54:39;;;;;;;13.98;5.97;;;12.00;99.90;;;;;;5074898;28;20045;-52
2022/06/04 01:57:13;;;;;;;10.35;5.60;;;12.00;99.90;;;;;;5056789;28;20494;-48
2022/06/04 01:59:42;;;;;;;12.18;5.57;;;12.00;99.90;;;;;;5074518;28;20084;-51
2022/06/04 02:02:13;;;;;;;12.00;5.53;;;11.80;99.90;;;;;;5074933;28;20399;-51
2022/06/04 02:04:41;;;;;;;11.23;6.25;;;11.80;99.90;;;;;;5074718;28;20463;-51
2022/06/04 02:07:31;;;;;;;10.40;5.80;;;11.70;99.90;;;;;;5074955;28;20040;-52
2022/06/04 02:10:03;;;;;;;15.32;5.80;;;11.70;99.90;;;;;;5074447;28;20036;-52
2022/06/04 02:12:33;;;;;;;11.10;6.82;;;11.70;99.90;;;;;;5074432;28;20059;-51
2022/06/04 02:14:59;;;;;;;10.35;5.78;;;11.70;99.90;;;;;;5056900;28;20159;-51
2022/06/04 02:17:27;;;;;;;29.13;6.40;;;11.70;99.90;;;;;;5074621;28;20098;-51
2022/06/04 02:19:52;;;;;;;8.95;5.38;;;11.80;99.90;;;;;;5074566;28;20048;-51
2022/06/04 02:22:18;;;;;;;11.90;6.30;;;11.70;99.90;;;;;;5074418;28;20406;-51
2022/06/04 02:24:44;;;;;;;11.55;5.72;;;11.70;99.90;;;;;;5073959;28;20056;-52
2022/06/04 02:27:10;;;;;;;8.35;5.70;;;11.70;99.90;;;;;;5074019;28;20040;-52
2022/06/04 02:29:37;;;;;;;13.45;6.15;;;11.80;99.90;;;;;;5074593;28;20075;-52
2022/06/04 02:32:14;;;;;;;10.38;6.15;;;11.70;99.90;;;;;;5074011;28;20482;-50
2022/06/04 02:35:18;;;;;;;11.63;5.75;;;11.70;99.90;;;;;;5074048;28;20127;-52
2022/06/04 02:38:07;;;;;;;18.67;6.10;;;11.70;99.90;;;;;;5074591;28;20679;-50
2022/06/04 02:40:48;;;;;;;12.65;6.13;;;11.60;99.90;;;;;;5074104;28;20048;-52
2022/06/04 02:43:30;;;;;;;11.27;6.68;;;11.60;99.90;;;;;;5074053;28;20376;-50
2022/06/04 02:46:09;;;;;;;11.40;5.72;;;11.60;99.90;;;;;;5074018;28;20053;-50
2022/06/04 02:48:41;;;;;;;10.55;5.78;;;11.70;99.90;;;;;;5074248;28;20052;-52
2022/06/04 02:51:19;;;;;;;14.98;5.72;;;11.70;99.90;;;;;;5073542;28;20076;-51
2022/06/04 02:53:46;;;;;;;11.43;6.75;;;11.70;99.90;;;;;;5073863;28;20048;-52
2022/06/04 02:56:17;;;;;;;9.38;6.43;;;11.80;99.90;;;;;;5073400;28;20465;-51
2022/06/04 02:58:47;;;;;;;13.02;6.57;;;11.70;99.90;;;;;;5074008;28;20098;-51
2022/06/04 03:01:14;;;;;;;10.27;6.20;;;11.70;99.90;;;;;;5055222;28;20537;-52
2022/06/04 03:03:40;;;;;;;10.35;5.70;;;11.80;99.90;;;;;;5073433;28;20379;-52
2022/06/04 03:06:19;;;;;;;10.45;6.30;;;11.80;99.90;;;;;;5073783;28;20059;-51
2022/06/04 03:08:44;;;;;;;13.18;6.72;;;11.70;99.90;;;;;;5073492;28;20041;-50
2022/06/04 03:11:10;;;;;;;16.52;6.68;;;11.60;99.90;;;;;;5073252;28;20044;-52
2022/06/04 03:13:35;;;;;;;10.82;6.47;;;11.70;99.90;;;;;;5073536;28;20037;-51
2022/06/04 03:16:01;;;;;;;12.80;5.90;;;11.70;99.90;;;;;;5075547;28;20411;-50
2022/06/04 03:18:27;;;;;;;12.55;5.90;;;11.70;99.90;;;;;;5072937;28;20044;-51
2022/06/04 03:20:52;;;;;;;10.57;5.90;;;11.70;99.90;;;;;;5073157;28;20151;-51
2022/06/04 03:23:18;;;;;;;12.05;5.70;;;11.70;99.90;;;;;;5073220;28;20090;-50
2022/06/04 03:25:43;;;;;;;11.70;5.65;;;11.70;99.90;;;;;;5073080;28;20040;-50
2022/06/04 03:28:09;;;;;;;11.77;5.95;;;11.70;99.90;;;;;;5073035;28;20044;-52
2022/06/04 03:30:36;;;;;;;10.77;5.47;;;11.70;99.90;;;;;;5073302;28;20037;-50
2022/06/04 03:33:03;;;;;;;9.57;4.80;;;11.70;99.90;;;;;;5073391;28;20750;-52
2022/06/04 03:35:29;;;;;;;11.48;5.45;;;11.70;99.90;;;;;;5073031;28;20704;-50
2022/06/04 03:37:54;;;;;;;5.25;4.70;;;11.70;99.90;;;;;;5072966;28;20044;-52
2022/06/04 03:40:20;;;;;;;6.75;5.00;;;11.70;99.90;;;;;;5073084;28;20040;-51
2022/06/04 03:42:46;;;;;;;10.25;5.88;;;11.70;99.90;;;;;;5072791;28;20114;-51
2022/06/04 03:45:13;;;;;;;13.80;4.93;;;11.70;99.90;;;;;;5072375;28;20131;-52
2022/06/04 03:47:40;;;;;;;7.82;4.72;;;11.60;99.90;;;;;;5072745;28;20040;-52
2022/06/04 03:50:13;;;;;;;10.75;5.07;;;11.60;99.90;;;;;;5072522;28;20055;-52
2022/06/04 03:52:39;;;;;;;7.50;4.10;;;11.60;99.90;;;;;;5072814;28;20094;-52
2022/06/04 03:55:06;;;;;;;8.73;4.07;;;11.60;99.90;;;;;;5072590;28;20833;-51
2022/06/04 03:57:38;;;;;;;7.85;4.20;;;11.60;99.90;;;;;;5054731;28;20048;-50
2022/06/04 04:00:27;;;;;;;6.85;4.53;;;11.50;99.90;;;;;;5072542;28;20041;-51
2022/06/04 04:03:03;;;;;;;9.10;4.72;;;11.50;99.90;;;;;;5010435;28;20049;-52
2022/06/04 04:05:35;;;;;;;7.35;4.78;;;11.50;99.90;;;;;;5010593;28;20078;-51
2022/06/04 04:08:04;;;;;;;5.38;3.53;;;11.50;99.90;;;;;;5010547;28;20042;-50
2022/06/04 04:10:30;;;;;;;6.90;4.20;;;11.50;99.90;;;;;;5010890;28;20057;-52
2022/06/04 04:12:56;;;;;;;5.90;3.95;;;11.60;99.90;;;;;;5010105;28;20056;-47
2022/06/04 04:15:23;;;;;;;8.70;3.83;;;11.60;99.90;;;;;;5010503;28;20492;-52
2022/06/04 04:17:49;;;;;;;8.90;4.07;;;11.60;99.90;;;;;;5010363;28;20108;-51
2022/06/04 04:20:23;;;;;;;7.03;4.05;;;11.60;99.90;;;;;;5010531;28;20050;-52
2022/06/04 04:22:50;;;;;;;7.70;4.55;;;11.70;99.90;;;;;;5010432;28;20046;-51
2022/06/04 04:25:18;;;;;;;11.10;4.13;;;11.70;99.90;;;;;;5010063;28;20050;-51
2022/06/04 04:27:43;;;;;;;7.07;4.13;;;11.70;99.90;;;;;;5010224;28;20045;-52
2022/06/04 04:30:14;;;;;;;5.03;3.97;;;11.70;99.90;;;;;;5010180;28;20081;-49
2022/06/04 04:32:41;;;;;;;9.27;3.65;;;11.80;99.90;;;;;;5010205;28;20521;-51
2022/06/04 04:35:12;;;;;;;10.25;3.97;;;11.80;99.90;;;;;;5010161;28;20061;-52
2022/06/04 04:37:38;;;;;;;10.93;4.47;;;11.90;99.90;;;;;;5010179;28;20049;-50
2022/06/04 04:40:04;;;;;;;9.52;4.45;;;11.90;99.90;;;;;;5044313;28;20406;-52
2022/06/04 04:42:30;;;;;;;9.18;4.28;;;11.90;99.90;;;;;;5078375;28;20422;-51
2022/06/04 04:44:55;;;;;;;10.18;4.15;;;11.90;99.90;;;;;;5071668;28;20048;-52
2022/06/04 04:47:21;;;;;;;6.28;4.05;;;11.90;99.90;;;;;;5053490;28;20055;-52
2022/06/04 04:49:46;;;;;;;7.68;4.22;;;11.90;99.90;;;;;;5071971;28;20044;-52
2022/06/04 04:52:12;;;;;;;8.02;3.67;;;11.90;99.90;;;;;;5071889;28;20498;-52
2022/06/04 04:54:38;;;;;;;8.05;4.03;;;12.00;99.90;;;;;;5071246;28;20040;-50
2022/06/04 04:57:04;;;;;;;5.45;4.10;;;12.00;99.90;;;;;;5071985;28;20462;-52
2022/06/04 04:59:30;;;;;;;6.10;3.60;;;12.10;99.90;;;;;;5071749;28;20063;-51
2022/06/04 05:01:55;;;;;;;6.85;3.85;;;12.20;99.90;;;;;;5071854;28;20048;-52
2022/06/04 05:04:21;;;;;;;5.53;4.20;;;12.20;99.90;;;;;;5071480;28;20048;-51
2022/06/04 05:06:47;;;;;;;6.97;4.07;;;12.30;99.90;;;;;;5071802;28;20041;-51
2022/06/04 05:09:13;;;;;;;7.45;4.53;;;12.40;99.90;;;;;;5071587;28;20453;-52
2022/06/04 05:11:39;;;;;;;8.88;4.47;;;12.30;99.90;;;;;;5071300;28;20115;-52
2022/06/04 05:14:04;;;;;;;8.65;4.50;;;12.40;99.90;;;;;;5071711;28;20052;-52
2022/06/04 05:16:36;;;;;;;8.10;4.18;;;12.50;99.90;;;;;;5071388;28;20565;-52
2022/06/04 05:19:03;;;;;;;9.02;4.72;;;12.50;99.90;;;;;;5071504;28;20082;-51
2022/06/04 05:21:47;;;;;;;7.57;4.05;;;12.60;99.90;;;;;;5071213;28;20119;-52
2022/06/04 05:24:16;;;;;;;6.15;4.43;;;12.70;99.90;;;;;;5071739;28;20107;-53
2022/06/04 05:26:41;;;;;;;16.73;5.90;;;12.70;99.90;;;;;;5075069;28;20037;-52
2022/06/04 05:29:07;;;;;;;4.90;4.10;;;12.90;99.90;;;;;;5075185;28;20046;-51
2022/06/04 05:31:33;;;;;;;7.07;3.67;;;12.90;99.90;;;;;;5074417;28;20028;-51
2022/06/04 05:33:58;;;;;;;9.45;4.63;;;12.90;99.90;;;;;;5075156;28;20041;-51
2022/06/04 05:36:24;;;;;;;8.07;3.92;;;13.00;99.90;;;;;;5075360;28;20040;-51
2022/06/04 05:38:50;;;;;;;6.43;3.95;;;13.00;99.90;;;;;;5074895;28;20072;-52
2022/06/04 05:41:15;;;;;;;23.52;4.55;;;13.10;99.90;;;;;;5075171;28;20040;-52
2022/06/04 05:43:41;;;;;;;6.55;4.25;;;13.10;99.90;;;;;;5075078;28;20037;-52
2022/06/04 05:46:10;;;;;;;12.93;4.22;;;13.10;99.90;;;;;;5075049;28;20490;-52
2022/06/04 05:48:38;;;;;;;7.72;5.25;;;13.20;99.90;;;;;;5074751;28;20076;-52
2022/06/04 05:51:04;;;;;;;6.55;4.40;;;13.30;99.90;;;;;;5075119;28;20044;-52
2022/06/04 05:53:30;;;;;;;5.30;3.95;;;13.50;99.90;;;;;;5075044;28;20051;-52
2022/06/04 05:55:56;;;;;;;4.65;3.72;;;13.60;99.90;;;;;;5074732;28;20053;-50
2022/06/04 05:58:21;;;;;;;10.20;4.32;;;13.70;99.90;;;;;;5074275;28;20044;-52
2022/06/04 06:00:47;;;;;;;4.35;3.70;;;13.80;99.90;;;;;;5074794;28;20067;-52
2022/06/04 06:03:13;;;;;;;8.20;4.15;;;13.70;99.90;;;;;;5074668;28;20186;-52
2022/06/04 06:05:43;;;;;;;7.45;4.55;;;14.00;99.90;;;;;;5074937;28;20045;-51
2022/06/04 06:08:09;;;;;;;7.82;4.38;;;14.00;99.90;;;;;;5074358;28;20514;-51
2022/06/04 06:10:40;;;;;;;5.85;4.03;;;14.00;99.90;;;;;;5074634;28;20115;-52
2022/06/04 06:13:06;;;;;;;7.45;4.05;;;14.20;99.90;;;;;;5074221;28;20163;-51
2022/06/04 06:15:32;;;;;;;6.18;3.50;;;14.30;99.90;;;;;;5074567;28;20503;-51
2022/06/04 06:17:58;;;;;;;5.70;3.53;;;14.40;99.90;;;;;;5074110;28;20059;-48
2022/06/04 06:20:23;;;;;;;4.72;3.70;;;14.50;99.90;;;;;;5074068;28;20355;-49
2022/06/04 06:22:49;;;;;;;5.78;3.65;;;14.70;99.90;;;;;;5074439;28;20048;-52
2022/06/04 06:25:16;;;;;;;6.60;3.42;;;14.90;99.90;;;;;;5074384;28;20135;-53
2022/06/04 06:27:43;;;;;;;4.95;3.88;;;14.90;99.90;;;;;;5074515;28;20395;-52
2022/06/04 06:30:09;;;;;;;5.00;3.78;;;15.10;99.90;;;;;;5074280;28;20045;-52
2022/06/04 06:32:35;;;;;;;7.53;4.10;;;15.00;99.90;;;;;;5074616;28;20038;-53
2022/06/04 06:35:01;;;;;;;5.25;3.80;;;15.30;99.90;;;;;;5074255;28;20463;-52
2022/06/04 06:37:27;;;;;;;19.67;4.28;;;15.30;99.90;;;;;;5072590;28;20526;-51
2022/06/04 06:39:53;;;;;;;5.18;2.92;;;15.40;99.90;;;;;;5073917;28;20041;-52
2022/06/04 06:42:19;;;;;;;7.45;3.70;;;15.30;99.90;;;;;;5073867;28;20048;-52
2022/06/04 06:44:44;;;;;;;5.60;4.20;;;15.20;99.90;;;;;;5073772;28;20453;-52
2022/06/04 06:47:10;;;;;;;6.47;3.85;;;15.40;99.90;;;;;;5074075;28;20055;-51
2022/06/04 06:49:36;;;;;;;7.45;4.28;;;15.40;99.90;;;;;;5074068;28;20060;-52
2022/06/04 06:52:03;;;;;;;5.38;3.53;;;15.70;99.90;;;;;;5073786;28;20041;-51
2022/06/04 06:54:34;;;;;;;7.32;3.90;;;15.60;99.90;;;;;;5073775;28;20060;-52
2022/06/04 06:57:01;;;;;;;6.22;3.90;;;16.00;99.90;;;;;;5073801;28;20502;-51
2022/06/04 06:59:28;;;;;;;4.47;3.40;;;16.10;99.90;;;;;;5073391;28;20056;-51
2022/06/04 07:01:55;;;;;;;7.00;4.13;;;16.30;99.90;;;;;;5073827;28;20052;-51
2022/06/04 07:04:21;;;;;;;6.63;3.40;;;16.40;99.90;;;;;;5073427;28;20048;-51
2022/06/04 07:06:51;;;;;;;6.20;3.78;;;16.60;99.90;;;;;;5073893;28;20471;-52
2022/06/04 07:09:23;;;;;;;5.43;3.22;;;16.80;99.90;;;;;;5073729;28;20044;-52
2022/06/04 07:11:49;;;;;;;8.30;3.20;;;17.00;99.90;;;;;;5073468;28;20052;-52
2022/06/04 07:14:15;;;;;;;6.47;3.42;;;17.10;99.90;;;;;;5073715;28;20847;-52
2022/06/04 07:16:41;;;;;;;5.25;3.40;;;17.20;99.90;;;;;;5073433;28;20869;-52
2022/06/04 07:19:07;;;;;;;8.15;3.28;;;17.00;99.90;;;;;;5074166;28;20098;-53
2022/06/04 07:21:33;;;;;;;7.88;3.47;;;16.90;99.90;;;;;;5076254;28;20398;-52
2022/06/04 07:23:59;;;;;;;5.35;3.45;;;17.20;99.90;;;;;;5073254;28;20049;-52
2022/06/04 07:26:26;;;;;;;5.88;3.70;;;16.60;99.90;;;;;;5072182;28;20036;-52
2022/06/04 07:28:52;;;;;;;6.07;3.35;;;17.00;99.90;;;;;;5072048;28;20052;-52
2022/06/04 07:31:18;;;;;;;6.85;3.17;;;16.80;99.90;;;;;;5073066;28;20048;-51
2022/06/04 07:33:45;;;;;;;5.20;3.40;;;17.00;99.90;;;;;;5072181;28;20509;-50
2022/06/04 07:36:26;;;;;;;8.30;3.53;;;17.40;99.90;;;;;;5072656;28;20048;-52
2022/06/04 07:38:51;;;;;;;6.72;3.50;;;17.50;99.90;;;;;;5071496;28;20414;-53
2022/06/04 07:41:30;;;;;;;4.35;2.90;;;17.50;99.90;;;;;;5070531;28;20045;-51
2022/06/04 07:43:56;;;;;;;5.22;2.95;;;17.60;99.90;;;;;;5070617;28;20037;-53
2022/06/04 07:46:23;;;;;;;5.03;3.08;;;18.10;99.90;;;;;;5074543;28;20040;-51
2022/06/04 07:48:49;;;;;;;6.75;3.03;;;18.20;99.90;;;;;;5068724;28;20033;-52
2022/06/04 07:51:15;;;;;;;3.75;2.70;;;18.10;99.90;;;;;;5071815;28;20485;-53
2022/06/04 07:53:41;;;;;;;7.75;2.70;;;18.50;99.90;;;;;;5072125;28;20040;-53
2022/06/04 07:56:12;;;;;;;5.85;3.05;;;18.50;99.90;;;;;;5053787;28;20111;-53
2022/06/04 07:58:39;;;;;;;5.20;3.58;;;18.00;99.90;;;;;;5054234;28;20052;-51
2022/06/04 08:01:06;;;;;;;5.50;2.85;;;17.90;99.90;;;;;;5071903;28;20032;-52
2022/06/04 08:03:36;;;;;;;4.70;3.30;;;18.10;99.90;;;;;;5071592;28;20036;-52
2022/06/04 08:06:03;;;;;;;5.25;3.03;;;18.40;99.90;;;;;;5071870;28;20051;-52
2022/06/04 08:08:29;;;;;;;6.47;2.70;;;18.60;99.90;;;;;;5073470;28;20187;-53
2022/06/04 08:10:57;;;;;;;4.30;2.70;;;18.60;99.90;;;;;;5071923;28;20044;-52
2022/06/04 08:13:25;;;;;;;3.60;2.67;;;18.50;99.90;;;;;;5071396;28;20044;-53
2022/06/04 08:15:55;;;;;;;5.75;2.85;;;18.70;99.90;;;;;;5070567;28;20049;-53
2022/06/04 08:18:20;;;;;;;7.03;3.03;;;19.30;99.90;;;;;;5071315;28;20036;-51
2022/06/04 08:20:46;;;;;;;6.93;2.80;;;19.30;99.90;;;;;;5074043;28;20114;-53
2022/06/04 08:23:13;;;;;;;8.20;2.85;;;19.20;99.90;;;;;;5056980;28;20076;-51
2022/06/04 08:25:40;;;;;;;6.57;2.80;;;19.60;99.90;;;;;;5071129;28;20048;-53
2022/06/04 08:28:06;;;;;;;5.50;2.50;;;20.30;99.90;;;;;;5071861;28;20159;-53
2022/06/04 08:30:32;;;;;;;4.28;2.22;;;19.90;99.90;;;;;;5072006;28;20434;-53
2022/06/04 08:32:57;;;;;;;5.63;2.97;;;20.50;99.90;;;;;;5071636;28;20502;-54
2022/06/04 08:35:23;;;;;;;7.00;3.03;;;20.60;99.90;;;;;;5070253;28;20044;-53
2022/06/04 08:37:48;;;;;;;5.05;2.88;;;20.70;99.90;;;;;;5069731;28;20132;-54
2022/06/04 08:40:35;;;;;;;4.72;2.75;;;20.80;99.90;;;;;;5070873;28;20045;-54
2022/06/04 08:43:07;;;;;;;2.72;2.47;;;20.80;99.90;;;;;;5069355;28;20043;-54
2022/06/04 08:45:36;;;;;;;5.30;2.70;;;20.60;99.90;;;;;;5070955;28;20044;-55
2022/06/04 08:48:02;;;;;;;4.95;2.20;;;21.10;99.90;;;;;;5070878;28;20087;-55
2022/06/04 08:50:35;;;;;;;4.90;2.70;;;21.20;99.90;;;;;;5071393;28;20413;-55
2022/06/04 08:53:03;;;;;;;6.32;2.60;;;21.20;99.90;;;;;;5071722;28;20040;-54
2022/06/04 08:58:39;;;;;;;3.85;2.03;;;20.80;99.90;;;;;;5069978;28;20072;-53
2022/06/04 09:01:23;;;;;;;4.15;2.08;;;21.20;99.90;;;;;;5070680;28;20487;-57
2022/06/04 09:04:21;;;;;;;5.53;2.17;;;22.10;99.90;;;;;;5070637;28;20430;-57
2022/06/04 09:07:13;;;;;;;4.38;2.22;;;23.00;99.90;;;;;;5009187;28;20440;-57
2022/06/04 09:09:45;;;;;;;20.00;3.03;;;23.90;99.90;;;;;;5008979;28;20129;-58
2022/06/04 09:12:31;;;;;;;4.28;2.20;;;24.90;99.90;;;;;;5008152;28;20050;-57
2022/06/04 09:15:10;;;;;;;3.53;2.30;;;24.80;98.60;;;;;;5006992;28;20058;-57
2022/06/04 09:17:50;;;;;;;4.60;2.53;;;25.30;99.90;;;;;;5013335;28;20045;-57
2022/06/04 09:20:33;;;;;;;4.53;2.20;;;25.10;97.80;;;;;;5002433;28;20129;-57
2022/06/04 09:23:28;;;;;;;6.15;1.83;;;24.80;98.40;;;;;;5011279;28;20057;-57
2022/06/04 09:26:03;;;;;;;3.42;2.03;;;24.30;97.80;;;;;;5009427;28;20400;-57
2022/06/04 09:28:55;;;;;;;3.28;2.08;;;24.00;98.50;;;;;;5009500;28;20556;-57
2022/06/04 09:32:01;;;;;;;4.55;2.00;;;24.30;98.60;;;;;;5009406;28;20038;-57
2022/06/04 09:34:36;;;;;;;4.18;2.20;;;24.60;98.40;;;;;;5008440;28;20053;-57
2022/06/04 09:37:03;;;;;;;7.40;1.98;;;25.20;98.30;;;;;;5008785;28;20160;-57
2022/06/04 09:39:32;;;;;;;4.03;1.73;;;25.20;98.90;;;;;;5009542;28;20879;-57
2022/06/04 09:42:00;;;;;;;3.97;2.15;;;26.30;98.40;;;;;;5007386;28;20053;-57
2022/06/04 09:44:28;;;;;;;3.77;2.00;;;25.80;97.40;;;;;;5051754;28;20139;-57
2022/06/04 09:47:06;;;;;;;4.65;1.70;;;26.10;97.60;;;;;;5070844;28;20271;-56
2022/06/04 09:49:31;;;;;;;7.35;2.05;;;26.30;97.20;;;;;;5070640;28;20123;-57
2022/06/04 09:51:57;;;;;;;5.13;2.00;;;25.80;97.60;;;;;;5070665;28;20115;-56
2022/06/04 09:54:31;;;;;;;4.75;2.30;;;25.80;96.60;;;;;;5070640;28;20099;-57
2022/06/04 09:57:05;;;;;;;2.80;2.00;;;24.90;95.90;;;;;;5070922;28;20044;-57
2022/06/04 09:59:34;;;;;;;7.68;2.28;;;25.10;96.80;;;;;;5069060;28;20041;-58
2022/06/04 10:02:09;;;;;;;3.35;1.50;;;25.80;96.10;;;;;;5070613;28;20059;-58
2022/06/04 10:04:38;;;;;;;4.32;2.05;;;27.40;96.50;;;;;;5069315;28;20072;-58
2022/06/04 10:07:09;;;;;;;4.07;1.98;;;27.90;96.40;;;;;;5070443;28;20505;-57
2022/06/04 10:09:56;;;;;;;4.00;1.95;;;27.80;95.60;;;;;;5067373;28;20032;-58
2022/06/04 10:15:36;;;;;;;4.25;2.20;;;28.60;94.90;;;;;;5071426;28;20487;-58
2022/06/04 10:18:04;;;;;;;4.00;2.10;;;28.70;95.00;;;;;;5071674;28;20498;-58
2022/06/04 10:20:30;;;;;;;3.13;1.70;;;28.30;93.80;;;;;;5073567;28;20048;-58
2022/06/04 10:22:56;;;;;;;5.03;2.35;;;29.10;94.50;;;;;;5074142;28;20052;-57
2022/06/04 10:25:42;;;;;;;3.92;1.80;;;28.60;93.90;;;;;;5056101;28;20045;-57
2022/06/04 10:28:33;;;;;;;4.32;2.00;;;29.20;93.50;;;;;;5074320;28;20126;-57
2022/06/04 10:31:09;;;;;;;3.20;1.92;;;28.90;93.20;;;;;;5074058;28;20048;-58
2022/06/04 10:33:51;;;;;;;3.78;2.08;;;30.00;93.40;;;;;;5072965;28;20092;-57
2022/06/04 10:36:43;;;;;;;3.00;1.80;;;29.60;92.50;;;;;;5073854;28;20056;-57
2022/06/04 10:39:15;;;;;;;4.57;2.22;;;29.90;93.60;;;;;;5065877;28;20102;-57
2022/06/04 10:42:02;;;;;;;5.38;2.40;;;30.00;92.90;;;;;;5072732;28;20483;-57
2022/06/04 10:44:52;;;;;;;4.88;2.33;;;29.80;92.90;;;;;;5055402;28;20372;-57
2022/06/04 10:47:17;;;;;;;3.33;2.17;;;29.30;92.30;;;;;;5072624;28;20044;-58
2022/06/04 10:49:56;;;;;;;2.92;2.03;;;29.90;93.10;;;;;;5073123;28;20040;-57
2022/06/04 10:52:31;;;;;;;5.20;2.30;;;30.10;92.70;;;;;;5073067;28;20048;-57
2022/06/04 10:55:15;;;;;;;10.10;2.45;;;30.50;91.90;;;;;;5072434;28;20398;-57
2022/06/04 10:58:05;;;;;;;4.15;1.83;;;30.90;92.70;;;;;;5071274;28;20053;-57
2022/06/04 11:00:45;;;;;;;4.20;1.98;;;31.40;92.90;;;;;;5071579;28;20445;-57
2022/06/04 11:03:40;;;;;;;4.45;1.90;;;31.30;92.40;;;;;;5069452;28;20512;-57
2022/06/04 11:06:12;;;;;;;6.22;2.40;;;30.60;91.50;;;;;;5073303;28;20115;-57
2022/06/04 11:08:54;;;;;;;5.80;2.17;;;31.00;92.20;;;;;;5073416;28;20163;-57
2022/06/04 11:11:37;;;;;;;6.22;2.17;;;30.80;91.30;;;;;;5073164;28;20049;-57
2022/06/04 11:14:29;;;;;;;3.83;1.83;;;31.00;92.30;;;;;;5067003;28;20048;-57
2022/06/04 11:17:13;;;;;;;4.03;2.05;;;30.40;92.10;;;;;;4993515;28;20042;-57
2022/06/04 11:19:48;;;;;;;2.85;1.90;;;30.90;91.90;;;;;;5011076;28;20046;-57
2022/06/04 11:22:24;;;;;;;4.30;1.67;;;30.90;91.60;;;;;;5010910;28;20073;-57
2022/06/04 11:24:52;;;;;;;3.25;1.63;;;31.00;91.90;;;;;;5022712;28;20064;-57
2022/06/04 11:27:31;;;;;;;;;;;31.40;91.60;;;;;;5011481;28;20050;-57
2022/06/04 11:29:57;;;;;;;4.47;2.07;;;30.80;90.80;;;;;;4994500;28;20367;-57
2022/06/04 11:32:37;;;;;;;3.25;1.75;;;30.50;91.40;;;;;;5011110;28;20042;-56
2022/06/04 11:35:30;;;;;;;4.03;2.05;;;30.10;90.90;;;;;;5008271;28;20105;-56
2022/06/04 11:38:22;;;;;;;3.70;1.90;;;29.90;91.20;;;;;;5010993;28;20074;-57
2022/06/04 11:40:56;;;;;;;3.90;2.08;;;29.90;91.30;;;;;;5008740;28;20141;-57
2022/06/04 11:43:42;;;;;;;5.03;2.08;;;30.40;91.70;;;;;;5006653;28;20057;-57
2022/06/04 11:46:41;;;;;;;4.93;2.33;;;31.10;91.90;;;;;;5009545;28;20058;-57
2022/06/04 11:49:22;;;;;;;6.20;2.40;;;31.00;91.50;;;;;;5008938;28;20128;-57
2022/06/04 11:52:26;;;;;;;5.47;2.67;;;31.50;91.60;;;;;;5010372;28;20037;-57
2022/06/04 11:55:34;;;;;;;4.95;2.40;;;30.80;90.30;;;;;;5061880;28;20521;-57
2022/06/04 11:58:18;;;;;;;3.95;2.47;;;29.30;90.80;;;;;;5071689;28;20090;-57
2022/06/04 12:00:48;;;;;;;6.50;2.80;;;29.80;91.40;;;;;;5066109;28;20394;-57
2022/06/04 12:03:32;;;;;;;4.13;2.38;;;29.90;91.30;;;;;;5068209;28;20048;-57
2022/06/04 12:06:06;;;;;;;5.05;2.47;;;30.50;91.50;;;;;;5072188;28;20059;-56
2022/06/04 12:08:38;;;;;;;5.60;2.85;;;29.80;90.50;;;;;;5072261;28;20082;-57
2022/06/04 12:11:35;;;;;;;4.78;2.42;;;28.90;90.40;;;;;;5072175;28;20048;-57
2022/06/04 12:14:18;;;;;;;4.20;2.00;;;28.70;91.60;;;;;;5071688;28;20099;-56
2022/06/04 12:17:09;;;;;;;4.70;2.15;;;29.30;92.30;;;;;;5071656;28;20044;-56
2022/06/04 12:25:41;;;;;;;4.78;2.25;;;29.40;91.40;;;;;;5071787;28;20138;-56
2022/06/04 12:28:30;;;;;;;5.03;2.35;;;29.70;92.20;;;;;;5071669;28;20525;-57
2022/06/04 12:31:00;;;;;;;5.47;2.70;;;29.50;91.20;;;;;;5071661;28;20032;-57
2022/06/04 12:33:32;;;;;;;5.30;2.42;;;28.60;91.20;;;;;;5071055;28;20048;-56
2022/06/04 12:36:04;;;;;;;6.93;2.20;;;28.40;92.50;;;;;;5069189;28;20048;-56
2022/06/04 12:38:34;;;;;;;5.60;2.50;;;29.00;92.00;;;;;;5071646;28;20052;-57
2022/06/04 12:41:19;;;;;;;4.57;2.28;;;28.40;91.60;;;;;;5060572;28;20087;-56
2022/06/04 12:43:56;;;;;;;5.53;2.25;;;28.30;92.30;;;;;;5071300;28;20486;-57
2022/06/04 12:46:22;;;;;;;6.00;2.53;;;28.40;92.50;;;;;;5071762;28;20415;-56
2022/06/04 12:49:01;;;;;;;6.28;2.35;;;28.90;92.50;;;;;;5053766;28;20044;-56
2022/06/04 12:51:36;;;;;;;8.95;2.80;;;28.80;91.70;;;;;;5071811;28;20461;-56
2022/06/04 12:54:19;;;;;;;4.97;2.60;;;28.00;91.90;;;;;;5071709;28;20052;-57
2022/06/04 12:56:53;;;;;;;6.15;2.70;;;27.70;91.60;;;;;;5071835;28;20394;-57
2022/06/04 12:59:40;;;;;;;7.78;2.80;;;28.70;92.60;;;;;;5070134;28;20037;-56
2022/06/04 13:02:32;;;;;;;6.43;2.78;;;27.90;92.20;;;;;;5061944;28;20040;-57
2022/06/04 13:05:16;;;;;;;6.78;2.78;;;27.80;92.40;;;;;;5071245;28;20526;-56
2022/06/04 13:08:16;;;;;;;8.82;3.08;;;28.50;93.10;;;;;;5071269;28;20399;-56
2022/06/04 13:11:09;;;;;;;3.95;1.92;;;28.50;91.80;;;;;;5063028;28;20393;-56
2022/06/04 13:13:55;;;;;;;6.03;2.60;;;28.90;92.00;;;;;;5070259;28;20044;-56
2022/06/04 13:16:27;;;;;;;7.32;2.85;;;29.50;92.20;;;;;;5071152;28;20102;-56
2022/06/04 13:19:08;;;;;;;6.60;2.58;;;28.30;92.00;;;;;;5071156;28;20055;-56
2022/06/04 13:21:37;;;;;;;6.60;2.67;;;28.10;92.40;;;;;;5071231;28;20044;-56
2022/06/04 13:24:09;;;;;;;7.57;3.67;;;27.30;92.70;;;;;;5060543;28;20044;-56
2022/06/04 13:26:51;;;;;;;5.35;2.67;;;27.30;93.00;;;;;;5071202;28;20445;-56
2022/06/04 13:29:28;;;;;;;7.82;2.95;;;27.30;92.60;;;;;;5064632;28;20091;-56